Time;durP1;ratioP1;P1;durP2;ratioP2;P2;SDS_P1;SDS_P2;PMS_P1;PMS_P2;Temp;Humidity;BMP_temperature;BMP_pressure;BME280_temperature;BME280_humidity;BME280_pressure;Samples;Min_cycle;Max_cycle;Signal;HPM_P1;HPM_P2
2022/01/01 00:00:14;;;;;;;15.37;12.47;;;11.30;90.40;;;10.07;88.42;98808.13;5074990;28;20543;-75
2022/01/01 00:02:42;;;;;;;14.97;12.93;;;11.30;90.60;;;9.96;88.07;98776.25;5079561;28;20538;-71
2022/01/01 00:05:12;;;;;;;14.27;12.80;;;11.30;90.60;;;10.11;87.95;98804.03;5076864;28;20493;-72
2022/01/01 00:07:40;;;;;;;11.63;10.17;;;11.30;90.70;;;10.25;87.98;98814.97;5075610;28;20492;-73
2022/01/01 00:10:08;;;;;;;11.57;10.37;;;11.30;90.60;;;10.06;88.42;98812.69;5077613;28;21034;-72
2022/01/01 00:12:35;;;;;;;10.70;9.60;;;11.30;90.60;;;10.06;88.94;98814.56;5080565;28;20959;-70
2022/01/01 00:15:02;;;;;;;11.13;9.50;;;11.30;90.90;;;10.15;88.27;98816.09;5081298;28;20484;-74
2022/01/01 00:17:29;;;;;;;9.53;8.43;;;11.30;90.70;;;10.11;88.66;98819.38;5074101;28;20591;-71
2022/01/01 00:19:58;;;;;;;9.60;8.60;;;11.30;90.70;;;10.13;88.61;98811.91;5083789;28;20460;-71
2022/01/01 00:22:25;;;;;;;10.53;8.10;;;11.30;90.80;;;10.10;88.34;98821.25;5081190;28;20470;-71
2022/01/01 00:24:52;;;;;;;9.27;8.37;;;11.30;90.90;;;9.88;88.53;98772.66;5082344;28;20453;-70
2022/01/01 00:27:19;;;;;;;7.80;7.13;;;11.30;90.70;;;10.04;88.42;98817.47;5080379;28;20502;-71
2022/01/01 00:29:45;;;;;;;14.50;8.67;;;11.30;90.60;;;10.07;89.17;98821.63;5085698;28;20507;-71
2022/01/01 00:32:12;;;;;;;7.63;6.83;;;11.20;90.90;;;10.15;88.08;98815.25;5079938;28;20485;-72
2022/01/01 00:34:39;;;;;;;9.80;8.90;;;11.30;90.90;;;10.21;88.23;98822.59;5075024;28;20550;-73
2022/01/01 00:37:08;;;;;;;9.30;8.37;;;11.30;90.70;;;10.18;88.33;98825.69;5081851;28;20513;-72
2022/01/01 00:39:35;;;;;;;8.13;7.43;;;11.30;90.70;;;10.15;88.33;98829.59;5064889;28;21275;-72
2022/01/01 00:42:02;;;;;;;8.40;7.60;;;11.30;90.80;;;10.06;88.99;98815.41;5079992;28;20546;-71
2022/01/01 00:44:30;;;;;;;10.60;8.60;;;11.30;90.80;;;10.05;89.02;98824.53;5073836;28;20498;-74
2022/01/01 00:46:58;;;;;;;9.47;8.23;;;11.30;90.80;;;10.09;88.77;98822.28;5076544;28;20473;-74
2022/01/01 00:49:25;;;;;;;8.10;7.37;;;11.30;90.80;;;10.13;88.84;98833.53;5077698;28;20465;-72
2022/01/01 00:51:52;;;;;;;7.70;7.00;;;11.30;90.80;;;10.15;88.53;98828.75;5077689;28;20560;-75
2022/01/01 00:54:20;;;;;;;8.37;7.47;;;11.30;90.80;;;9.97;88.92;98829.22;5085702;28;20963;-73
2022/01/01 00:56:47;;;;;;;8.47;7.53;;;11.20;90.80;;;10.05;88.79;98839.88;5081792;28;20475;-75
2022/01/01 00:59:16;;;;;;;8.43;7.60;;;11.20;91.10;;;10.17;88.31;98845.63;5080660;28;20460;-71
2022/01/01 01:01:43;;;;;;;7.80;7.00;;;11.20;91.00;;;10.18;87.82;98836.50;5075348;28;20507;-72
2022/01/01 01:04:10;;;;;;;11.07;9.13;;;11.30;90.80;;;10.14;87.75;98843.28;5067622;28;20444;-75
2022/01/01 01:06:37;;;;;;;8.93;7.40;;;11.30;90.70;;;10.13;88.81;98850.56;5084233;28;20457;-75
2022/01/01 01:09:04;;;;;;;7.77;6.97;;;11.30;90.80;;;10.04;88.95;98851.72;5075653;28;20460;-72
2022/01/01 01:11:41;;;;;;;8.50;7.60;;;11.20;90.90;;;10.11;88.54;98858.03;5078831;28;20533;-72
2022/01/01 01:14:10;;;;;;;8.90;7.80;;;11.20;91.00;;;10.00;89.55;98862.03;5081705;28;20481;-74
2022/01/01 01:16:37;;;;;;;8.17;7.37;;;11.20;91.10;;;10.12;88.59;98859.72;5076646;28;20953;-72
2022/01/01 01:19:04;;;;;;;8.30;7.53;;;11.20;90.80;;;10.11;88.53;98866.13;5060559;28;20477;-73
2022/01/01 01:21:31;;;;;;;8.23;7.40;;;11.30;90.60;;;10.06;88.25;98855.91;5074822;28;20509;-72
2022/01/01 01:23:59;;;;;;;9.43;8.07;;;11.20;91.20;;;10.10;88.04;98860.91;5093171;28;20501;-73
2022/01/01 01:26:28;;;;;;;9.17;8.20;;;11.20;90.90;;;10.07;88.49;98851.31;5086232;28;20490;-73
2022/01/01 01:28:57;;;;;;;9.73;8.20;;;11.20;90.70;;;10.12;88.46;98857.00;5078950;28;20449;-73
2022/01/01 01:31:27;;;;;;;9.20;8.40;;;11.20;90.90;;;9.99;88.80;98854.16;5077601;28;20476;-72
2022/01/01 01:33:54;;;;;;;9.10;8.20;;;11.20;91.10;;;9.93;89.09;98850.34;5080252;28;20570;-73
2022/01/01 01:36:21;;;;;;;9.70;8.10;;;11.10;91.10;;;10.02;88.53;98867.28;5082736;28;20465;-73
2022/01/01 01:38:48;;;;;;;9.13;7.90;;;11.20;91.20;;;10.03;88.62;98864.38;5077571;28;20462;-71
2022/01/01 01:41:16;;;;;;;7.97;7.27;;;11.10;91.30;;;10.04;88.38;98859.81;5064827;28;20555;-74
2022/01/01 01:43:42;;;;;;;8.87;7.63;;;11.20;91.00;;;9.97;88.56;98864.31;5076639;28;20452;-71
2022/01/01 01:46:13;;;;;;;9.70;8.17;;;11.10;91.20;;;10.00;89.17;98864.75;5092976;28;20456;-74
2022/01/01 01:48:40;;;;;;;8.80;7.90;;;11.10;90.90;;;10.02;88.50;98857.31;5056424;28;20540;-70
2022/01/01 01:51:07;;;;;;;8.97;7.67;;;11.10;91.10;;;10.05;88.81;98859.63;5077614;28;20461;-71
2022/01/01 01:53:35;;;;;;;8.00;7.30;;;11.20;91.00;;;10.02;88.96;98864.56;5076269;28;20553;-71
2022/01/01 01:56:02;;;;;;;8.70;7.80;;;11.10;91.10;;;10.02;88.07;98859.16;5074682;28;20522;-70
2022/01/01 01:58:30;;;;;;;9.40;7.93;;;11.20;90.90;;;10.04;88.95;98852.56;5077953;28;20533;-73
2022/01/01 02:03:57;;;;;;;8.07;7.27;;;11.10;91.30;;;9.81;89.76;98860.81;5015022;28;20464;-70
2022/01/01 02:06:25;;;;;;;8.70;7.43;;;11.00;91.40;;;9.89;89.33;98871.50;5043914;28;20461;-72
2022/01/01 02:08:53;;;;;;;9.93;7.10;;;11.00;91.30;;;9.88;89.65;98869.81;5063631;28;21052;-70
2022/01/01 02:11:22;;;;;;;8.60;7.80;;;11.00;91.60;;;9.90;89.07;98866.94;5059154;28;20876;-72
2022/01/01 02:16:49;;;;;;;8.67;7.53;;;11.00;91.60;;;9.94;89.53;98872.81;5056684;28;20560;-72
2022/01/01 02:19:25;;;;;;;7.23;6.63;;;11.10;91.20;;;9.94;89.66;98870.09;5075740;28;20471;-72
2022/01/01 02:21:58;;;;;;;8.50;7.60;;;11.00;91.50;;;9.82;88.60;98867.03;5075433;28;21560;-72
2022/01/01 02:24:25;;;;;;;8.57;7.40;;;11.00;91.30;;;9.98;88.81;98871.38;5073305;28;20458;-71
2022/01/01 02:26:53;;;;;;;7.40;6.70;;;11.10;91.20;;;9.81;89.71;98868.91;5074687;28;20523;-73
2022/01/01 02:29:21;;;;;;;8.27;7.40;;;11.00;91.20;;;9.91;89.37;98871.31;5072113;28;20895;-72
2022/01/01 02:31:50;;;;;;;7.17;6.57;;;11.00;91.40;;;9.91;88.86;98863.22;5068392;28;20556;-71
2022/01/01 02:34:18;;;;;;;8.70;7.80;;;11.00;91.10;;;9.97;88.88;98867.03;5081524;28;20460;-72
2022/01/01 02:36:45;;;;;;;7.80;6.47;;;11.10;91.10;;;10.04;88.39;98867.91;5065126;28;20483;-72
2022/01/01 02:39:18;;;;;;;9.00;7.20;;;11.10;90.90;;;9.92;88.86;98865.69;5082989;28;20541;-75
2022/01/01 02:41:48;;;;;;;9.97;8.93;;;11.10;91.10;;;9.82;89.01;98864.34;5087335;28;20573;-73
2022/01/01 02:44:15;;;;;;;7.17;6.47;;;11.00;91.30;;;9.86;89.36;98868.34;5082175;28;20461;-74
2022/01/01 02:46:43;;;;;;;7.90;7.03;;;11.00;91.50;;;9.83;89.22;98866.00;5074943;28;20470;-72
2022/01/01 02:49:10;;;;;;;8.57;7.70;;;11.00;91.20;;;9.72;89.90;98870.03;5080202;28;20453;-75
2022/01/01 02:51:37;;;;;;;9.30;7.47;;;10.90;91.50;;;9.84;89.11;98865.84;5058426;28;21278;-71
2022/01/01 02:54:04;;;;;;;16.83;8.80;;;10.90;91.40;;;9.74;89.56;98871.53;5083263;28;20877;-72
2022/01/01 02:56:32;;;;;;;9.53;7.43;;;10.90;91.50;;;9.81;89.72;98868.06;5081247;28;20586;-71
2022/01/01 02:58:59;;;;;;;7.37;6.67;;;10.90;91.30;;;9.83;88.99;98872.25;5078633;28;20507;-71
2022/01/01 03:01:26;;;;;;;8.40;7.03;;;10.90;91.40;;;9.83;88.49;98866.00;5078958;28;20470;-72
2022/01/01 03:03:53;;;;;;;9.10;7.03;;;10.90;91.10;;;9.86;89.05;98877.28;5075109;28;20463;-73
2022/01/01 03:06:20;;;;;;;8.23;7.20;;;11.00;91.00;;;9.76;89.30;98879.44;5077038;28;20529;-73
2022/01/01 03:08:48;;;;;;;8.60;6.70;;;10.90;91.20;;;9.70;89.39;98878.31;5077164;28;20499;-72
2022/01/01 03:11:16;;;;;;;7.57;6.40;;;10.90;91.50;;;9.92;89.06;98878.38;5078376;28;20452;-72
2022/01/01 03:13:45;;;;;;;7.20;6.23;;;11.00;91.10;;;9.89;88.32;98882.28;5092241;28;20552;-74
2022/01/01 03:16:13;;;;;;;6.90;6.30;;;11.00;91.00;;;9.82;88.95;98885.94;5061610;28;20584;-73
2022/01/01 03:18:41;;;;;;;6.93;5.80;;;10.90;91.00;;;9.75;89.43;98892.09;5072273;28;20549;-71
2022/01/01 03:21:09;;;;;;;6.90;6.27;;;10.90;91.30;;;9.59;89.75;98893.13;5060601;28;20457;-71
2022/01/01 03:23:36;;;;;;;7.40;6.40;;;10.80;91.40;;;9.65;89.30;98891.53;5059434;28;20456;-74
2022/01/01 03:26:04;;;;;;;7.10;6.40;;;10.80;91.60;;;9.51;89.12;98877.06;5077162;28;21323;-73
2022/01/01 03:28:31;;;;;;;8.60;7.23;;;10.80;91.70;;;9.70;89.54;98899.91;5076243;28;20460;-71
2022/01/01 03:30:59;;;;;;;10.70;6.50;;;10.80;91.70;;;9.63;89.46;98889.06;5082099;28;20456;-75
2022/01/01 03:33:26;;;;;;;7.13;6.50;;;10.80;91.60;;;9.55;90.46;98902.63;5077975;28;20552;-74
2022/01/01 03:35:54;;;;;;;8.07;5.97;;;10.70;92.00;;;9.58;89.99;98890.63;5077280;28;20470;-71
2022/01/01 03:38:21;;;;;;;7.20;6.50;;;10.80;91.80;;;9.69;89.77;98900.09;5078337;28;21046;-72
2022/01/01 03:40:48;;;;;;;8.17;7.37;;;10.80;91.70;;;9.53;90.09;98903.84;5079160;28;20508;-74
2022/01/01 03:43:15;;;;;;;9.17;7.30;;;10.80;91.70;;;9.66;90.06;98908.59;5080088;28;20467;-73
2022/01/01 03:45:42;;;;;;;8.43;5.80;;;10.80;91.70;;;9.59;89.52;98914.72;5075721;28;20533;-72
2022/01/01 03:48:10;;;;;;;6.63;6.03;;;10.70;91.70;;;9.67;89.49;98911.06;5074363;28;20987;-75
2022/01/01 03:50:37;;;;;;;7.07;6.30;;;10.80;91.70;;;9.63;89.98;98912.50;5074345;28;20467;-72
2022/01/01 03:53:04;;;;;;;7.67;6.83;;;10.80;91.70;;;9.71;89.59;98920.50;5075558;28;20746;-71
2022/01/01 03:55:31;;;;;;;8.43;7.13;;;10.80;91.60;;;9.61;89.52;98907.25;5082181;28;20561;-71
2022/01/01 03:57:58;;;;;;;7.33;6.63;;;10.80;91.70;;;9.52;89.86;98907.56;5084843;28;20950;-73
2022/01/01 04:00:25;;;;;;;8.23;7.13;;;10.70;92.00;;;9.44;91.19;98905.78;5085323;28;20460;-72
2022/01/01 04:02:52;;;;;;;9.00;7.50;;;10.70;92.20;;;9.52;90.48;98912.94;5082847;28;20463;-72
2022/01/01 04:05:20;;;;;;;7.03;6.30;;;10.70;92.40;;;9.44;91.28;98900.41;5079346;28;20541;-72
2022/01/01 04:07:47;;;;;;;6.73;6.13;;;10.70;92.60;;;9.39;91.61;98902.81;5080476;28;20495;-72
2022/01/01 04:10:14;;;;;;;7.77;6.90;;;10.60;92.90;;;9.44;91.61;98908.50;5085156;28;20469;-73
2022/01/01 04:12:41;;;;;;;7.10;6.40;;;10.60;93.00;;;9.42;91.11;98907.84;5084103;28;20937;-71
2022/01/01 04:15:09;;;;;;;7.67;6.57;;;10.60;92.90;;;9.34;91.43;98909.63;5078415;28;21030;-73
2022/01/01 04:17:37;;;;;;;8.13;6.90;;;10.60;93.10;;;9.44;90.58;98903.09;5081952;28;20491;-73
2022/01/01 04:20:07;;;;;;;7.40;6.70;;;10.60;93.00;;;9.33;91.96;98899.00;5086996;28;20460;-72
2022/01/01 04:22:36;;;;;;;8.23;7.47;;;10.60;93.10;;;9.31;92.15;98899.19;5084045;28;20465;-72
2022/01/01 04:25:04;;;;;;;7.80;7.00;;;10.50;93.10;;;9.34;92.24;98900.69;5066341;28;20562;-73
2022/01/01 04:27:31;;;;;;;8.73;7.80;;;10.50;93.20;;;9.38;91.47;98893.06;5066364;28;20462;-73
2022/01/01 04:29:58;;;;;;;8.53;7.57;;;10.60;93.00;;;9.37;91.93;98899.47;5083425;28;20553;-72
2022/01/01 04:32:25;;;;;;;7.90;7.10;;;10.60;93.10;;;9.44;91.68;98900.41;5081040;28;20590;-72
2022/01/01 04:34:52;;;;;;;8.10;7.30;;;10.60;93.40;;;9.47;91.01;98900.88;5080590;28;21570;-72
2022/01/01 04:37:20;;;;;;;7.80;7.10;;;10.60;93.30;;;9.31;91.99;98893.78;5082796;28;20577;-72
2022/01/01 04:39:52;;;;;;;8.57;7.47;;;10.50;93.30;;;9.33;91.82;98889.06;5072669;28;20477;-73
2022/01/01 04:42:19;;;;;;;7.20;6.40;;;10.60;93.20;;;9.37;91.11;98903.00;5081795;28;20510;-72
2022/01/01 04:44:46;;;;;;;9.87;8.87;;;10.60;93.10;;;9.29;92.14;98889.63;5073943;28;20851;-72
2022/01/01 04:47:13;;;;;;;9.60;8.33;;;10.50;93.40;;;9.37;92.17;98900.31;5073875;28;20880;-71
2022/01/01 04:49:40;;;;;;;8.50;7.33;;;10.50;93.10;;;9.38;91.91;98884.97;5078107;28;20456;-73
2022/01/01 04:52:07;;;;;;;12.77;8.40;;;10.50;93.20;;;9.34;92.06;98885.34;5098127;28;20478;-72
2022/01/01 04:54:39;;;;;;;10.17;8.20;;;10.60;93.30;;;9.35;91.28;98883.47;5080461;28;22340;-71
2022/01/01 04:57:08;;;;;;;9.33;8.43;;;10.60;93.00;;;9.24;92.28;98889.31;5084141;28;20488;-72
2022/01/01 04:59:36;;;;;;;9.07;8.17;;;10.50;93.10;;;9.34;91.72;98898.84;5079094;28;20457;-71
2022/01/01 05:02:04;;;;;;;8.73;7.77;;;10.50;93.00;;;9.29;91.12;98893.13;5064437;28;20536;-70
2022/01/01 05:04:31;;;;;;;9.67;8.23;;;10.50;93.10;;;9.31;91.26;98885.69;5077935;28;20542;-74
2022/01/01 05:06:58;;;;;;;9.60;7.27;;;10.50;93.10;;;9.41;90.79;98892.69;5105970;28;20525;-72
2022/01/01 05:09:27;;;;;;;12.13;8.80;;;10.50;92.70;;;9.45;90.50;98894.81;5085612;28;20472;-71
2022/01/01 05:11:55;;;;;;;9.20;7.23;;;10.60;92.40;;;9.46;90.62;98898.34;5085447;28;20452;-71
2022/01/01 05:14:24;;;;;;;6.90;6.20;;;10.60;92.40;;;9.47;90.26;98900.88;5083863;28;20496;-72
2022/01/01 05:16:51;;;;;;;8.80;7.57;;;10.60;92.30;;;9.43;89.50;98890.63;5080033;28;20533;-73
2022/01/01 05:19:19;;;;;;;9.70;8.17;;;10.60;92.10;;;9.30;91.03;98911.00;5079891;28;20493;-71
2022/01/01 05:21:46;;;;;;;9.60;7.60;;;10.50;92.10;;;9.18;91.67;98913.31;5074908;28;20464;-71
2022/01/01 05:24:18;;;;;;;8.73;6.83;;;10.40;92.50;;;9.48;89.91;98920.59;5061877;28;20473;-72
2022/01/01 05:26:46;;;;;;;8.10;7.30;;;10.60;92.30;;;9.39;90.95;98916.31;5078590;28;20456;-72
2022/01/01 05:29:12;;;;;;;10.03;7.97;;;10.50;92.40;;;9.41;90.27;98925.06;5063542;28;21127;-71
2022/01/01 05:31:41;;;;;;;8.50;7.10;;;10.60;92.20;;;9.41;90.34;98917.81;5054678;28;20544;-72
2022/01/01 05:34:08;;;;;;;7.93;7.13;;;10.60;91.80;;;9.44;90.37;98921.97;5077225;28;20551;-71
2022/01/01 05:36:35;;;;;;;8.80;7.87;;;10.60;92.20;;;9.39;90.63;98929.78;5075621;28;21005;-71
2022/01/01 05:39:02;;;;;;;8.37;7.47;;;10.50;92.00;;;9.30;90.90;98932.56;5074720;28;21160;-74
2022/01/01 05:41:29;;;;;;;7.77;6.97;;;10.50;92.30;;;9.17;91.62;98938.59;5074618;28;20492;-72
2022/01/01 05:43:56;;;;;;;8.13;7.33;;;10.40;92.60;;;9.21;91.74;98929.13;5076929;28;20486;-73
2022/01/01 05:46:23;;;;;;;9.90;7.37;;;10.40;93.30;;;9.24;91.69;98938.72;5075925;28;20449;-72
2022/01/01 05:48:51;;;;;;;9.80;8.80;;;10.40;93.00;;;9.38;90.14;98933.50;5077284;28;20464;-72
2022/01/01 05:51:18;;;;;;;7.63;6.83;;;10.50;92.90;;;9.40;90.73;98940.41;5056067;28;20958;-72
2022/01/01 05:53:45;;;;;;;8.80;7.07;;;10.50;92.50;;;9.46;89.66;98931.56;5073848;28;21288;-75
2022/01/01 05:56:12;;;;;;;8.40;7.60;;;10.60;92.10;;;9.33;90.45;98937.63;5074275;28;20580;-73
2022/01/01 05:58:39;;;;;;;8.43;6.90;;;10.50;92.10;;;9.44;90.32;98922.81;5056545;28;20458;-72
2022/01/01 06:01:06;;;;;;;11.17;8.13;;;10.60;92.10;;;9.43;90.08;98931.09;5073748;28;20977;-70
2022/01/01 06:03:33;;;;;;;8.20;7.23;;;10.60;92.00;;;9.49;89.73;98933.06;5059039;28;20547;-71
2022/01/01 06:06:01;;;;;;;8.60;6.80;;;10.60;92.00;;;9.45;89.88;98924.50;5081478;28;20496;-72
2022/01/01 06:08:28;;;;;;;7.00;6.30;;;10.60;91.60;;;9.47;90.40;98932.38;5063217;28;20453;-72
2022/01/01 06:10:55;;;;;;;8.40;7.20;;;10.60;91.90;;;9.35;90.29;98929.31;5085025;28;20642;-73
2022/01/01 06:13:22;;;;;;;8.07;7.23;;;10.50;91.70;;;9.42;90.40;98929.41;5078591;28;20499;-71
2022/01/01 06:15:49;;;;;;;8.17;7.37;;;10.50;92.00;;;9.41;90.50;98927.75;5084926;28;20554;-74
2022/01/01 06:18:16;;;;;;;8.50;7.60;;;10.60;91.80;;;9.33;90.36;98937.63;5088958;28;21028;-71
2022/01/01 06:20:43;;;;;;;8.23;7.43;;;10.50;91.90;;;9.42;89.61;98930.28;5088103;28;20461;-73
2022/01/01 06:23:12;;;;;;;8.87;7.80;;;10.60;91.90;;;9.32;90.55;98919.72;5069093;28;21199;-72
2022/01/01 06:25:39;;;;;;;9.53;7.70;;;10.50;92.10;;;9.28;90.57;98926.53;5080756;28;20460;-71
2022/01/01 06:28:06;;;;;;;9.03;7.47;;;10.50;92.10;;;9.31;90.78;98934.25;5059785;28;20459;-73
2022/01/01 06:30:34;;;;;;;9.10;8.13;;;10.50;92.40;;;9.24;91.08;98933.31;5068916;28;20483;-71
2022/01/01 06:33:02;;;;;;;7.40;6.70;;;10.40;92.40;;;9.38;90.92;98931.63;5070922;28;20459;-75
2022/01/01 06:35:29;;;;;;;8.57;7.67;;;10.50;92.10;;;9.39;90.53;98930.63;5080064;28;21216;-72
2022/01/01 06:37:56;;;;;;;10.97;7.87;;;10.50;92.20;;;9.22;90.84;98935.38;5088689;28;21352;-70
2022/01/01 06:40:25;;;;;;;8.13;7.30;;;10.50;92.30;;;9.26;91.07;98947.44;5072487;28;20883;-70
2022/01/01 06:42:51;;;;;;;8.83;8.00;;;10.50;92.30;;;9.28;91.00;98948.09;5087191;28;20453;-70
2022/01/01 06:45:18;;;;;;;10.30;8.37;;;10.40;92.80;;;9.41;90.38;98943.94;5084650;28;20534;-70
2022/01/01 06:47:45;;;;;;;7.93;6.83;;;10.50;92.40;;;9.28;90.46;98955.38;5071425;28;20866;-73
2022/01/01 06:50:12;;;;;;;10.67;8.30;;;10.50;92.40;;;9.10;91.38;98953.00;5083330;28;20892;-72
2022/01/01 06:52:44;;;;;;;8.73;7.83;;;10.40;92.50;;;9.31;90.77;98965.78;5072098;28;20449;-71
2022/01/01 06:55:12;;;;;;;8.27;7.40;;;10.40;92.90;;;9.29;91.06;98959.75;5063124;28;20829;-72
2022/01/01 06:57:42;;;;;;;7.53;6.70;;;10.40;92.70;;;9.25;91.62;98967.34;5083860;28;20476;-70
2022/01/01 07:00:11;;;;;;;8.57;7.67;;;10.40;92.50;;;9.52;90.29;98978.53;5079347;28;20850;-75
2022/01/01 07:02:40;;;;;;;7.77;6.97;;;10.50;92.20;;;9.42;90.18;98977.97;5085051;28;20506;-74
2022/01/01 07:05:08;;;;;;;7.70;6.90;;;10.60;92.10;;;9.34;90.95;98985.13;5078218;28;20889;-73
2022/01/01 07:07:35;;;;;;;8.13;6.60;;;10.50;92.20;;;9.29;91.08;98968.66;5083480;28;20925;-74
2022/01/01 07:10:04;;;;;;;7.70;6.97;;;10.50;92.40;;;9.29;90.87;98974.03;5083278;28;20484;-74
2022/01/01 07:12:31;;;;;;;7.53;6.83;;;10.50;92.40;;;9.25;91.04;98977.28;5081613;28;20555;-72
2022/01/01 07:14:59;;;;;;;9.23;7.60;;;10.50;92.40;;;9.26;91.14;98977.13;5077356;28;20532;-73
2022/01/01 07:17:26;;;;;;;8.50;7.57;;;10.40;92.60;;;9.44;90.54;98992.97;5058937;28;20484;-72
2022/01/01 07:19:53;;;;;;;7.63;6.80;;;10.50;92.70;;;9.43;90.50;98996.69;5085283;28;20452;-71
2022/01/01 07:22:20;;;;;;;8.13;7.20;;;10.60;92.10;;;9.35;90.75;98999.44;5083513;28;20461;-72
2022/01/01 07:24:47;;;;;;;7.47;6.77;;;10.50;92.60;;;9.41;89.88;99004.13;5081944;28;20478;-72
2022/01/01 07:27:14;;;;;;;9.73;7.17;;;10.60;92.20;;;9.31;90.66;98998.97;5080439;28;20550;-74
2022/01/01 07:29:41;;;;;;;8.97;7.03;;;10.50;92.40;;;9.45;90.72;99010.81;5086919;28;21082;-72
2022/01/01 07:32:09;;;;;;;7.50;6.70;;;10.60;92.50;;;9.35;90.71;99016.47;5084801;28;20508;-72
2022/01/01 07:34:36;;;;;;;8.30;6.50;;;10.50;92.30;;;9.46;90.49;99017.88;5081636;28;20882;-71
2022/01/01 07:37:04;;;;;;;7.50;6.70;;;10.60;92.10;;;9.33;90.93;99018.53;5083868;28;20476;-73
2022/01/01 07:39:31;;;;;;;8.20;7.40;;;10.50;92.50;;;9.32;90.95;99014.13;5074863;28;20887;-72
2022/01/01 07:41:58;;;;;;;8.33;7.20;;;10.50;92.40;;;9.56;89.89;99014.91;5076533;28;20488;-72
2022/01/01 07:44:25;;;;;;;7.77;6.70;;;10.60;92.30;;;9.42;89.87;99004.94;5081798;28;20472;-69
2022/01/01 07:46:52;;;;;;;7.40;6.27;;;10.60;91.90;;;9.47;89.96;99018.72;5083384;28;20557;-68
2022/01/01 07:49:21;;;;;;;7.90;7.10;;;10.60;91.90;;;9.46;90.02;99017.03;5064671;28;20503;-78
2022/01/01 07:51:48;;;;;;;6.93;6.33;;;10.60;91.70;;;9.43;90.47;99014.72;5088575;28;20974;-72
2022/01/01 07:54:15;;;;;;;7.63;6.83;;;10.60;91.90;;;9.49;90.14;99022.09;5083765;28;20464;-72
2022/01/01 07:56:41;;;;;;;7.53;6.83;;;10.60;91.90;;;9.58;89.10;99015.56;5087225;28;20474;-69
2022/01/01 07:59:08;;;;;;;7.70;6.90;;;10.70;91.60;;;9.54;89.51;99022.34;5067820;28;20471;-69
2022/01/01 08:01:36;;;;;;;7.17;6.10;;;10.70;91.40;;;9.60;89.47;99018.91;5081712;28;20527;-69
2022/01/01 08:04:03;;;;;;;7.80;6.37;;;10.70;91.60;;;9.66;88.99;99016.53;5066184;28;20831;-71
2022/01/01 08:06:32;;;;;;;7.30;6.60;;;10.80;91.10;;;9.56;89.09;99014.09;5065994;28;20541;-69
2022/01/01 08:09:00;;;;;;;6.10;5.60;;;10.70;91.30;;;9.61;88.84;99022.47;5083611;28;20468;-72
2022/01/01 08:11:27;;;;;;;6.67;6.00;;;10.70;91.30;;;9.75;88.67;99012.69;5079639;28;20549;-76
2022/01/01 08:13:54;;;;;;;6.90;6.20;;;10.80;91.20;;;9.62;89.17;99016.03;5087322;28;20543;-71
2022/01/01 08:16:21;;;;;;;6.30;5.50;;;10.80;91.00;;;9.76;87.35;99012.50;5060857;28;20549;-73
2022/01/01 08:18:48;;;;;;;9.00;6.30;;;10.80;90.60;;;9.68;88.60;99009.06;5076454;28;20457;-68
2022/01/01 08:21:16;;;;;;;7.00;6.27;;;10.80;90.90;;;9.70;89.00;98997.03;5085109;28;20488;-67
2022/01/01 08:23:44;;;;;;;6.47;5.73;;;10.80;90.80;;;9.76;88.52;98992.78;5084383;28;20465;-69
2022/01/01 08:26:11;;;;;;;6.50;5.90;;;10.90;90.50;;;9.88;87.66;99004.78;5079947;28;20445;-68
2022/01/01 08:28:38;;;;;;;6.63;5.73;;;11.00;90.00;;;9.77;87.96;98999.84;5085223;28;20506;-70
2022/01/01 08:31:06;;;;;;;6.33;5.17;;;11.00;89.80;;;9.81;88.05;99001.16;5098600;28;20452;-68
2022/01/01 08:33:33;;;;;;;6.50;5.87;;;11.00;90.20;;;9.94;88.10;99013.19;5063826;28;20756;-71
2022/01/01 08:36:03;;;;;;;6.73;6.03;;;11.00;90.70;;;10.13;87.24;99000.94;5089378;28;20519;-71
2022/01/01 08:38:31;;;;;;;5.93;5.33;;;11.20;90.60;;;10.11;86.45;99000.28;5068446;28;20517;-70
2022/01/01 08:41:00;;;;;;;5.67;4.97;;;11.20;88.90;;;10.28;85.94;99009.03;5096485;28;20463;-69
2022/01/01 08:43:28;;;;;;;5.60;5.00;;;11.30;88.60;;;10.35;85.51;99009.94;5084940;28;20475;-70
2022/01/01 08:45:55;;;;;;;5.77;5.20;;;11.40;88.50;;;10.35;84.99;99004.53;5084616;28;20974;-71
2022/01/01 08:48:22;;;;;;;4.83;4.43;;;11.40;87.60;;;10.28;85.20;99014.44;5088371;28;20525;-71
2022/01/01 08:50:49;;;;;;;5.17;4.67;;;11.40;87.40;;;10.36;84.31;99008.91;5087464;28;20472;-71
2022/01/01 08:53:17;;;;;;;5.77;5.13;;;11.50;87.10;;;10.41;83.97;99014.63;5067778;28;20980;-70
2022/01/01 08:55:43;;;;;;;6.13;4.80;;;11.50;86.70;;;10.32;84.73;99013.88;5099222;28;20463;-69
2022/01/01 08:58:12;;;;;;;5.93;4.90;;;11.50;86.40;;;10.30;84.34;99017.78;5086148;28;20509;-69
2022/01/01 09:00:39;;;;;;;5.63;5.10;;;11.50;86.50;;;10.45;84.46;99021.31;5081785;28;20534;-70
2022/01/01 09:03:06;;;;;;;5.77;5.17;;;11.60;86.70;;;10.43;83.94;99017.97;5077938;28;20462;-71
2022/01/01 09:05:33;;;;;;;6.23;4.73;;;11.60;86.40;;;10.49;83.15;99000.16;5067341;28;20476;-72
2022/01/01 09:08:00;;;;;;;5.57;4.90;;;11.60;86.00;;;10.47;83.24;99016.56;5077255;28;20557;-72
2022/01/01 09:10:27;;;;;;;5.60;5.10;;;11.60;85.90;;;10.66;83.22;99016.97;5059890;28;20464;-70
2022/01/01 09:12:54;;;;;;;5.43;4.90;;;11.70;85.70;;;10.19;83.48;98984.81;5080572;28;20999;-70
2022/01/01 09:15:22;;;;;;;5.40;4.90;;;11.70;85.60;;;10.52;83.69;99031.34;5068578;28;20461;-70
2022/01/01 09:17:49;;;;;;;5.10;4.60;;;11.60;85.70;;;10.57;82.93;99028.94;5083568;28;20473;-71
2022/01/01 09:20:16;;;;;;;5.60;4.70;;;11.70;85.60;;;10.58;83.18;99041.41;5066863;28;20568;-71
2022/01/01 09:22:43;;;;;;;6.30;4.53;;;11.70;85.50;;;10.65;83.06;99042.31;5078654;28;20542;-71
2022/01/01 09:25:12;;;;;;;8.13;6.47;;;11.70;85.20;;;10.63;82.94;99049.78;5068279;28;20492;-72
2022/01/01 09:27:39;;;;;;;6.40;5.07;;;11.80;85.30;;;10.50;83.66;99047.78;5083648;28;20527;-71
2022/01/01 09:30:08;;;;;;;5.83;4.70;;;11.70;85.40;;;10.62;82.81;99048.09;5078824;28;20554;-69
2022/01/01 09:32:37;;;;;;;5.80;4.93;;;11.80;85.10;;;10.76;82.52;99044.53;5100690;28;20476;-70
2022/01/01 09:35:06;;;;;;;6.23;5.00;;;11.80;85.20;;;10.61;82.44;99039.19;5064057;28;20469;-70
2022/01/01 09:37:33;;;;;;;7.40;5.67;;;11.80;85.10;;;10.76;82.46;99052.63;5068064;28;20473;-71
2022/01/01 09:40:02;;;;;;;5.20;4.70;;;11.90;84.90;;;10.88;81.61;99057.53;5084290;28;20518;-70
2022/01/01 09:42:31;;;;;;;6.70;5.17;;;12.00;84.80;;;10.93;81.99;99055.09;5094393;28;20536;-72
2022/01/01 09:44:59;;;;;;;8.23;5.80;;;12.00;84.80;;;11.19;80.50;99072.63;5081096;28;20470;-72
2022/01/01 09:47:27;;;;;;;6.70;5.03;;;12.10;84.60;;;11.15;80.53;99065.94;5079114;28;20453;-71
2022/01/01 09:49:55;;;;;;;8.17;5.97;;;12.30;84.00;;;10.95;81.32;99058.44;5071409;28;20463;-71
2022/01/01 09:52:23;;;;;;;7.07;5.67;;;12.10;84.10;;;11.02;80.49;99056.66;5072912;28;20453;-71
2022/01/01 09:54:50;;;;;;;8.00;5.20;;;12.20;83.80;;;11.10;80.48;99057.53;5075113;28;20557;-72
2022/01/01 09:57:17;;;;;;;8.00;5.50;;;12.20;84.00;;;11.11;80.42;99051.09;5072942;28;20464;-72
2022/01/01 09:59:44;;;;;;;6.07;5.47;;;12.20;83.80;;;11.17;79.51;99050.34;5071533;28;20571;-73
2022/01/01 10:02:11;;;;;;;6.20;5.30;;;12.30;83.40;;;11.25;79.87;99052.91;5072814;28;20558;-71
2022/01/01 10:04:43;;;;;;;5.57;4.83;;;12.30;83.30;;;11.16;79.00;99048.66;5078407;28;20454;-71
2022/01/01 10:07:13;;;;;;;8.20;5.03;;;12.40;82.80;;;11.23;78.80;99054.13;5083773;28;20465;-72
2022/01/01 10:09:41;;;;;;;6.17;5.10;;;12.40;82.50;;;11.24;78.76;99055.81;5072476;28;20459;-72
2022/01/01 10:12:12;;;;;;;5.07;4.57;;;12.40;82.40;;;11.37;77.42;99055.91;5080961;28;20474;-73
2022/01/01 10:14:41;;;;;;;5.90;4.70;;;12.40;82.10;;;11.31;78.13;99052.13;5083076;28;20484;-73
2022/01/01 10:17:21;;;;;;;4.70;4.20;;;12.50;81.90;;;11.31;78.28;99051.28;5097611;28;21258;-72
2022/01/01 10:19:50;;;;;;;8.60;4.50;;;12.40;81.90;;;11.32;77.85;99047.53;5080937;28;20539;-72
2022/01/01 10:22:20;;;;;;;5.00;4.40;;;12.50;81.80;;;11.37;77.37;99055.91;5067988;28;20781;-72
2022/01/01 10:27:46;;;;;;;5.80;4.23;;;12.60;81.00;;;11.69;76.40;99052.81;5077517;28;20455;-71
2022/01/01 10:30:34;;;;;;;5.00;4.37;;;12.70;81.30;;;11.73;75.72;99059.50;5079776;28;20449;-72
2022/01/01 10:33:08;;;;;;;7.60;5.57;;;12.80;80.70;;;11.43;76.68;99046.16;5083300;28;20555;-72